sensor_id;sensor_type;location;lat;lon;timestamp;P1;durP1;ratioP1;P2;durP2;ratioP2
17598;SDS011;8918;52.092;5.232;2022-12-07T00:01:17;17.10;;;8.77;;
17598;SDS011;8918;52.092;5.232;2022-12-07T00:03:51;12.93;;;7.80;;
17598;SDS011;8918;52.092;5.232;2022-12-07T00:06:18;10.27;;;5.53;;
17598;SDS011;8918;52.092;5.232;2022-12-07T00:08:45;9.70;;;5.07;;
17598;SDS011;8918;52.092;5.232;2022-12-07T00:11:12;24.63;;;11.00;;
17598;SDS011;8918;52.092;5.232;2022-12-07T00:13:43;20.07;;;8.40;;
17598;SDS011;8918;52.092;5.232;2022-12-07T00:16:10;31.27;;;14.47;;
17598;SDS011;8918;52.092;5.232;2022-12-07T00:18:37;26.87;;;13.27;;
17598;SDS011;8918;52.092;5.232;2022-12-07T00:21:26;14.50;;;7.90;;
17598;SDS011;8918;52.092;5.232;2022-12-07T00:23:52;17.03;;;8.07;;
17598;SDS011;8918;52.092;5.232;2022-12-07T00:28:50;12.10;;;8.80;;
17598;SDS011;8918;52.092;5.232;2022-12-07T00:31:21;7.27;;;5.60;;
17598;SDS011;8918;52.092;5.232;2022-12-07T00:33:49;10.27;;;6.80;;
17598;SDS011;8918;52.092;5.232;2022-12-07T00:36:16;11.87;;;7.30;;
17598;SDS011;8918;52.092;5.232;2022-12-07T00:38:44;8.10;;;4.90;;
17598;SDS011;8918;52.092;5.232;2022-12-07T00:41:10;11.20;;;5.57;;
17598;SDS011;8918;52.092;5.232;2022-12-07T00:43:36;14.10;;;6.70;;
17598;SDS011;8918;52.092;5.232;2022-12-07T00:46:02;10.03;;;6.07;;
17598;SDS011;8918;52.092;5.232;2022-12-07T00:48:28;7.17;;;3.97;;
17598;SDS011;8918;52.092;5.232;2022-12-07T00:50:54;7.43;;;3.63;;
17598;SDS011;8918;52.092;5.232;2022-12-07T00:53:19;9.07;;;4.13;;
17598;SDS011;8918;52.092;5.232;2022-12-07T00:55:45;8.40;;;5.73;;
17598;SDS011;8918;52.092;5.232;2022-12-07T00:58:11;10.37;;;4.73;;
17598;SDS011;8918;52.092;5.232;2022-12-07T01:00:38;8.53;;;5.23;;
17598;SDS011;8918;52.092;5.232;2022-12-07T01:03:05;11.43;;;6.30;;
17598;SDS011;8918;52.092;5.232;2022-12-07T01:05:32;11.47;;;7.10;;
17598;SDS011;8918;52.092;5.232;2022-12-07T01:07:57;41.17;;;18.60;;
17598;SDS011;8918;52.092;5.232;2022-12-07T01:10:24;90.67;;;37.13;;
17598;SDS011;8918;52.092;5.232;2022-12-07T01:12:50;59.87;;;26.67;;
17598;SDS011;8918;52.092;5.232;2022-12-07T01:15:16;183.77;;;76.70;;
17598;SDS011;8918;52.092;5.232;2022-12-07T01:17:41;56.07;;;25.23;;
17598;SDS011;8918;52.092;5.232;2022-12-07T01:20:07;46.37;;;22.57;;
17598;SDS011;8918;52.092;5.232;2022-12-07T01:22:37;42.73;;;22.93;;
17598;SDS011;8918;52.092;5.232;2022-12-07T01:25:04;34.10;;;16.60;;
17598;SDS011;8918;52.092;5.232;2022-12-07T01:27:30;20.97;;;10.07;;
17598;SDS011;8918;52.092;5.232;2022-12-07T01:29:57;13.33;;;6.90;;
17598;SDS011;8918;52.092;5.232;2022-12-07T01:32:22;10.90;;;4.10;;
17598;SDS011;8918;52.092;5.232;2022-12-07T01:34:48;8.97;;;4.40;;
17598;SDS011;8918;52.092;5.232;2022-12-07T01:37:14;9.07;;;3.97;;
17598;SDS011;8918;52.092;5.232;2022-12-07T01:39:39;6.83;;;3.90;;
17598;SDS011;8918;52.092;5.232;2022-12-07T01:42:08;6.03;;;3.80;;
17598;SDS011;8918;52.092;5.232;2022-12-07T01:47:41;11.40;;;6.87;;
17598;SDS011;8918;52.092;5.232;2022-12-07T01:50:08;14.80;;;7.07;;
17598;SDS011;8918;52.092;5.232;2022-12-07T01:52:35;12.07;;;5.50;;
17598;SDS011;8918;52.092;5.232;2022-12-07T01:55:05;9.43;;;6.33;;
17598;SDS011;8918;52.092;5.232;2022-12-07T01:57:33;9.77;;;5.90;;
17598;SDS011;8918;52.092;5.232;2022-12-07T02:00:05;8.40;;;4.27;;
17598;SDS011;8918;52.092;5.232;2022-12-07T02:02:36;6.20;;;3.30;;
17598;SDS011;8918;52.092;5.232;2022-12-07T02:05:07;6.50;;;3.10;;
17598;SDS011;8918;52.092;5.232;2022-12-07T02:07:34;11.50;;;5.37;;
17598;SDS011;8918;52.092;5.232;2022-12-07T02:10:16;15.70;;;6.07;;
17598;SDS011;8918;52.092;5.232;2022-12-07T02:12:48;20.13;;;9.90;;
17598;SDS011;8918;52.092;5.232;2022-12-07T02:15:16;11.43;;;5.07;;
17598;SDS011;8918;52.092;5.232;2022-12-07T02:20:39;11.93;;;5.30;;
17598;SDS011;8918;52.092;5.232;2022-12-07T02:29:17;11.50;;;5.53;;
17598;SDS011;8918;52.092;5.232;2022-12-07T02:32:08;27.17;;;11.10;;
17598;SDS011;8918;52.092;5.232;2022-12-07T02:34:44;17.63;;;7.47;;
17598;SDS011;8918;52.092;5.232;2022-12-07T02:39:56;18.50;;;7.87;;
17598;SDS011;8918;52.092;5.232;2022-12-07T02:42:31;38.43;;;14.80;;
17598;SDS011;8918;52.092;5.232;2022-12-07T02:45:01;33.10;;;13.67;;
17598;SDS011;8918;52.092;5.232;2022-12-07T02:47:29;31.10;;;13.63;;
17598;SDS011;8918;52.092;5.232;2022-12-07T02:49:56;30.97;;;13.00;;
17598;SDS011;8918;52.092;5.232;2022-12-07T02:52:22;22.33;;;9.87;;
17598;SDS011;8918;52.092;5.232;2022-12-07T02:54:49;16.57;;;6.77;;
17598;SDS011;8918;52.092;5.232;2022-12-07T02:57:38;9.60;;;4.67;;
17598;SDS011;8918;52.092;5.232;2022-12-07T03:00:21;11.17;;;4.10;;
17598;SDS011;8918;52.092;5.232;2022-12-07T03:05:31;18.10;;;6.53;;
17598;SDS011;8918;52.092;5.232;2022-12-07T03:16:14;6.07;;;2.63;;
17598;SDS011;8918;52.092;5.232;2022-12-07T03:18:57;8.33;;;3.60;;
17598;SDS011;8918;52.092;5.232;2022-12-07T03:21:35;8.60;;;3.30;;
17598;SDS011;8918;52.092;5.232;2022-12-07T03:24:06;6.03;;;3.20;;
17598;SDS011;8918;52.092;5.232;2022-12-07T03:26:38;5.80;;;2.90;;
17598;SDS011;8918;52.092;5.232;2022-12-07T03:29:26;7.00;;;2.63;;
17598;SDS011;8918;52.092;5.232;2022-12-07T03:32:04;9.20;;;3.10;;
17598;SDS011;8918;52.092;5.232;2022-12-07T03:34:39;6.27;;;2.77;;
17598;SDS011;8918;52.092;5.232;2022-12-07T03:37:14;9.43;;;2.93;;
17598;SDS011;8918;52.092;5.232;2022-12-07T03:42:47;6.00;;;2.77;;
17598;SDS011;8918;52.092;5.232;2022-12-07T03:45:16;6.17;;;2.70;;
17598;SDS011;8918;52.092;5.232;2022-12-07T03:47:47;5.20;;;2.50;;
17598;SDS011;8918;52.092;5.232;2022-12-07T03:50:38;7.00;;;2.57;;
17598;SDS011;8918;52.092;5.232;2022-12-07T03:53:23;7.67;;;2.73;;
17598;SDS011;8918;52.092;5.232;2022-12-07T03:55:58;5.97;;;2.67;;
17598;SDS011;8918;52.092;5.232;2022-12-07T03:58:25;9.57;;;4.03;;
17598;SDS011;8918;52.092;5.232;2022-12-07T04:00:52;11.90;;;4.43;;
17598;SDS011;8918;52.092;5.232;2022-12-07T04:03:18;8.27;;;3.60;;
17598;SDS011;8918;52.092;5.232;2022-12-07T04:05:43;9.70;;;3.80;;
17598;SDS011;8918;52.092;5.232;2022-12-07T04:08:09;12.30;;;5.23;;
17598;SDS011;8918;52.092;5.232;2022-12-07T04:10:35;14.20;;;6.10;;
17598;SDS011;8918;52.092;5.232;2022-12-07T04:13:01;16.03;;;6.10;;
17598;SDS011;8918;52.092;5.232;2022-12-07T04:15:26;16.87;;;6.20;;
17598;SDS011;8918;52.092;5.232;2022-12-07T04:17:52;12.97;;;3.97;;
17598;SDS011;8918;52.092;5.232;2022-12-07T04:20:18;7.93;;;3.30;;
17598;SDS011;8918;52.092;5.232;2022-12-07T04:22:44;5.50;;;2.93;;
17598;SDS011;8918;52.092;5.232;2022-12-07T04:25:09;5.27;;;2.60;;
17598;SDS011;8918;52.092;5.232;2022-12-07T04:27:35;4.30;;;2.60;;
17598;SDS011;8918;52.092;5.232;2022-12-07T04:30:01;5.13;;;2.30;;
17598;SDS011;8918;52.092;5.232;2022-12-07T04:32:27;6.10;;;3.07;;
17598;SDS011;8918;52.092;5.232;2022-12-07T04:34:52;11.27;;;3.90;;
17598;SDS011;8918;52.092;5.232;2022-12-07T04:37:18;10.80;;;4.20;;
17598;SDS011;8918;52.092;5.232;2022-12-07T04:39:44;16.23;;;7.10;;
17598;SDS011;8918;52.092;5.232;2022-12-07T04:42:10;23.97;;;9.30;;
17598;SDS011;8918;52.092;5.232;2022-12-07T04:44:36;11.63;;;3.50;;
17598;SDS011;8918;52.092;5.232;2022-12-07T04:47:02;6.43;;;2.30;;
17598;SDS011;8918;52.092;5.232;2022-12-07T04:49:28;8.20;;;2.10;;
17598;SDS011;8918;52.092;5.232;2022-12-07T04:51:53;6.73;;;2.20;;
17598;SDS011;8918;52.092;5.232;2022-12-07T04:54:19;6.07;;;2.00;;
17598;SDS011;8918;52.092;5.232;2022-12-07T04:56:45;6.17;;;2.33;;
17598;SDS011;8918;52.092;5.232;2022-12-07T04:59:12;5.63;;;2.30;;
17598;SDS011;8918;52.092;5.232;2022-12-07T05:01:38;13.50;;;3.10;;
17598;SDS011;8918;52.092;5.232;2022-12-07T05:04:04;8.33;;;2.40;;
17598;SDS011;8918;52.092;5.232;2022-12-07T05:06:30;7.07;;;2.93;;
17598;SDS011;8918;52.092;5.232;2022-12-07T05:08:55;6.70;;;2.40;;
17598;SDS011;8918;52.092;5.232;2022-12-07T05:11:21;5.57;;;2.33;;
17598;SDS011;8918;52.092;5.232;2022-12-07T05:14:13;6.40;;;2.50;;
17598;SDS011;8918;52.092;5.232;2022-12-07T05:16:44;5.27;;;2.23;;
17598;SDS011;8918;52.092;5.232;2022-12-07T05:19:11;5.70;;;2.27;;
17598;SDS011;8918;52.092;5.232;2022-12-07T05:21:37;9.33;;;2.63;;
17598;SDS011;8918;52.092;5.232;2022-12-07T05:24:03;5.55;;;2.47;;
17598;SDS011;8918;52.092;5.232;2022-12-07T05:26:30;8.33;;;2.50;;
17598;SDS011;8918;52.092;5.232;2022-12-07T05:28:56;5.57;;;2.10;;
17598;SDS011;8918;52.092;5.232;2022-12-07T05:31:22;3.83;;;2.00;;
17598;SDS011;8918;52.092;5.232;2022-12-07T05:33:48;5.37;;;2.10;;
17598;SDS011;8918;52.092;5.232;2022-12-07T05:36:14;5.60;;;2.07;;
17598;SDS011;8918;52.092;5.232;2022-12-07T05:38:40;3.33;;;2.73;;
17598;SDS011;8918;52.092;5.232;2022-12-07T05:41:06;4.83;;;2.03;;
17598;SDS011;8918;52.092;5.232;2022-12-07T05:43:33;6.87;;;2.43;;
17598;SDS011;8918;52.092;5.232;2022-12-07T05:45:59;4.53;;;2.10;;
17598;SDS011;8918;52.092;5.232;2022-12-07T05:48:25;5.67;;;2.10;;
17598;SDS011;8918;52.092;5.232;2022-12-07T05:50:51;5.33;;;2.20;;
17598;SDS011;8918;52.092;5.232;2022-12-07T05:53:17;5.47;;;2.10;;
17598;SDS011;8918;52.092;5.232;2022-12-07T05:55:43;8.97;;;2.90;;
17598;SDS011;8918;52.092;5.232;2022-12-07T05:58:09;8.23;;;3.10;;
17598;SDS011;8918;52.092;5.232;2022-12-07T06:00:56;6.70;;;2.70;;
17598;SDS011;8918;52.092;5.232;2022-12-07T06:03:22;5.60;;;2.20;;
17598;SDS011;8918;52.092;5.232;2022-12-07T06:05:48;6.00;;;2.67;;
17598;SDS011;8918;52.092;5.232;2022-12-07T06:08:13;5.03;;;2.40;;
17598;SDS011;8918;52.092;5.232;2022-12-07T06:10:40;6.50;;;2.50;;
17598;SDS011;8918;52.092;5.232;2022-12-07T06:13:06;6.07;;;2.37;;
17598;SDS011;8918;52.092;5.232;2022-12-07T06:15:33;4.07;;;2.03;;
17598;SDS011;8918;52.092;5.232;2022-12-07T06:18:01;6.77;;;2.40;;
17598;SDS011;8918;52.092;5.232;2022-12-07T06:20:26;4.93;;;2.30;;
17598;SDS011;8918;52.092;5.232;2022-12-07T06:22:52;6.43;;;2.23;;
17598;SDS011;8918;52.092;5.232;2022-12-07T06:25:17;9.07;;;2.53;;
17598;SDS011;8918;52.092;5.232;2022-12-07T06:27:43;5.17;;;2.60;;
17598;SDS011;8918;52.092;5.232;2022-12-07T06:30:08;7.40;;;2.80;;
17598;SDS011;8918;52.092;5.232;2022-12-07T06:32:35;6.03;;;3.10;;
17598;SDS011;8918;52.092;5.232;2022-12-07T06:35:01;6.47;;;2.60;;
17598;SDS011;8918;52.092;5.232;2022-12-07T06:37:27;5.27;;;2.40;;
17598;SDS011;8918;52.092;5.232;2022-12-07T06:39:53;4.37;;;2.50;;
17598;SDS011;8918;52.092;5.232;2022-12-07T06:42:18;5.43;;;2.63;;
17598;SDS011;8918;52.092;5.232;2022-12-07T06:44:44;8.17;;;3.23;;
17598;SDS011;8918;52.092;5.232;2022-12-07T06:47:09;6.57;;;2.67;;
17598;SDS011;8918;52.092;5.232;2022-12-07T06:49:36;5.37;;;2.83;;
17598;SDS011;8918;52.092;5.232;2022-12-07T06:52:01;6.63;;;2.43;;
17598;SDS011;8918;52.092;5.232;2022-12-07T06:54:27;7.30;;;2.70;;
17598;SDS011;8918;52.092;5.232;2022-12-07T06:56:55;6.83;;;2.50;;
17598;SDS011;8918;52.092;5.232;2022-12-07T06:59:20;7.90;;;2.97;;
17598;SDS011;8918;52.092;5.232;2022-12-07T07:01:46;8.87;;;2.87;;
17598;SDS011;8918;52.092;5.232;2022-12-07T07:04:12;7.13;;;2.37;;
17598;SDS011;8918;52.092;5.232;2022-12-07T07:06:37;8.83;;;3.20;;
17598;SDS011;8918;52.092;5.232;2022-12-07T07:09:03;8.80;;;3.30;;
17598;SDS011;8918;52.092;5.232;2022-12-07T07:11:28;7.50;;;2.90;;
17598;SDS011;8918;52.092;5.232;2022-12-07T07:13:54;6.23;;;3.00;;
17598;SDS011;8918;52.092;5.232;2022-12-07T07:16:22;6.87;;;2.30;;
17598;SDS011;8918;52.092;5.232;2022-12-07T07:18:49;5.23;;;2.33;;
17598;SDS011;8918;52.092;5.232;2022-12-07T07:21:15;4.80;;;2.30;;
17598;SDS011;8918;52.092;5.232;2022-12-07T07:23:40;7.50;;;2.30;;
17598;SDS011;8918;52.092;5.232;2022-12-07T07:26:06;5.73;;;2.10;;
17598;SDS011;8918;52.092;5.232;2022-12-07T07:28:31;3.80;;;2.30;;
17598;SDS011;8918;52.092;5.232;2022-12-07T07:30:57;7.80;;;2.40;;
17598;SDS011;8918;52.092;5.232;2022-12-07T07:33:22;7.20;;;2.50;;
17598;SDS011;8918;52.092;5.232;2022-12-07T07:35:48;4.13;;;2.37;;
17598;SDS011;8918;52.092;5.232;2022-12-07T07:38:14;6.50;;;2.30;;
17598;SDS011;8918;52.092;5.232;2022-12-07T07:40:39;6.03;;;2.83;;
17598;SDS011;8918;52.092;5.232;2022-12-07T07:43:05;14.97;;;3.10;;
17598;SDS011;8918;52.092;5.232;2022-12-07T07:45:31;8.23;;;2.63;;
17598;SDS011;8918;52.092;5.232;2022-12-07T07:47:56;14.83;;;3.10;;
17598;SDS011;8918;52.092;5.232;2022-12-07T07:50:22;9.23;;;2.53;;
17598;SDS011;8918;52.092;5.232;2022-12-07T07:52:48;11.43;;;4.03;;
17598;SDS011;8918;52.092;5.232;2022-12-07T07:55:14;8.40;;;3.77;;
17598;SDS011;8918;52.092;5.232;2022-12-07T07:57:40;9.10;;;3.53;;
17598;SDS011;8918;52.092;5.232;2022-12-07T08:00:07;6.67;;;3.27;;
17598;SDS011;8918;52.092;5.232;2022-12-07T08:02:35;8.10;;;3.13;;
17598;SDS011;8918;52.092;5.232;2022-12-07T08:05:00;7.27;;;2.90;;
17598;SDS011;8918;52.092;5.232;2022-12-07T08:07:27;6.83;;;2.67;;
17598;SDS011;8918;52.092;5.232;2022-12-07T08:09:52;6.37;;;2.37;;
17598;SDS011;8918;52.092;5.232;2022-12-07T08:12:19;5.17;;;2.60;;
17598;SDS011;8918;52.092;5.232;2022-12-07T08:14:44;9.57;;;2.80;;
17598;SDS011;8918;52.092;5.232;2022-12-07T08:17:10;7.70;;;2.60;;
17598;SDS011;8918;52.092;5.232;2022-12-07T08:19:36;6.27;;;2.50;;
17598;SDS011;8918;52.092;5.232;2022-12-07T08:22:01;9.07;;;2.70;;
17598;SDS011;8918;52.092;5.232;2022-12-07T08:24:27;8.17;;;2.80;;
17598;SDS011;8918;52.092;5.232;2022-12-07T08:26:53;7.03;;;3.43;;
17598;SDS011;8918;52.092;5.232;2022-12-07T08:29:18;8.97;;;2.87;;
17598;SDS011;8918;52.092;5.232;2022-12-07T08:31:44;9.47;;;2.80;;
17598;SDS011;8918;52.092;5.232;2022-12-07T08:34:10;8.77;;;2.20;;
17598;SDS011;8918;52.092;5.232;2022-12-07T08:36:36;10.73;;;2.43;;
17598;SDS011;8918;52.092;5.232;2022-12-07T08:39:02;6.83;;;2.20;;
17598;SDS011;8918;52.092;5.232;2022-12-07T08:41:28;6.80;;;2.70;;
17598;SDS011;8918;52.092;5.232;2022-12-07T08:43:54;7.33;;;2.10;;
17598;SDS011;8918;52.092;5.232;2022-12-07T08:46:21;12.73;;;2.90;;
17598;SDS011;8918;52.092;5.232;2022-12-07T08:49:19;9.00;;;2.80;;
17598;SDS011;8918;52.092;5.232;2022-12-07T08:51:49;8.63;;;2.50;;
17598;SDS011;8918;52.092;5.232;2022-12-07T08:54:16;5.37;;;2.70;;
17598;SDS011;8918;52.092;5.232;2022-12-07T08:56:43;8.37;;;2.47;;
17598;SDS011;8918;52.092;5.232;2022-12-07T08:59:10;8.47;;;2.17;;
17598;SDS011;8918;52.092;5.232;2022-12-07T09:01:39;5.37;;;2.00;;
17598;SDS011;8918;52.092;5.232;2022-12-07T09:04:05;5.63;;;2.03;;
17598;SDS011;8918;52.092;5.232;2022-12-07T09:06:30;7.57;;;2.20;;
17598;SDS011;8918;52.092;5.232;2022-12-07T09:08:57;7.30;;;2.10;;
17598;SDS011;8918;52.092;5.232;2022-12-07T09:11:25;7.57;;;1.97;;
17598;SDS011;8918;52.092;5.232;2022-12-07T09:13:50;8.77;;;1.90;;
17598;SDS011;8918;52.092;5.232;2022-12-07T09:16:16;5.07;;;2.10;;
17598;SDS011;8918;52.092;5.232;2022-12-07T09:18:42;6.40;;;1.83;;
17598;SDS011;8918;52.092;5.232;2022-12-07T09:21:08;4.03;;;2.23;;
17598;SDS011;8918;52.092;5.232;2022-12-07T09:23:34;7.87;;;2.20;;
17598;SDS011;8918;52.092;5.232;2022-12-07T09:26:01;4.97;;;1.73;;
17598;SDS011;8918;52.092;5.232;2022-12-07T09:28:27;8.13;;;2.23;;
17598;SDS011;8918;52.092;5.232;2022-12-07T09:30:53;4.60;;;1.83;;
17598;SDS011;8918;52.092;5.232;2022-12-07T09:33:18;5.13;;;2.10;;
17598;SDS011;8918;52.092;5.232;2022-12-07T09:35:44;4.70;;;1.90;;
17598;SDS011;8918;52.092;5.232;2022-12-07T09:38:11;5.07;;;2.03;;
17598;SDS011;8918;52.092;5.232;2022-12-07T09:40:37;7.60;;;2.50;;
17598;SDS011;8918;52.092;5.232;2022-12-07T09:43:02;7.80;;;2.33;;
17598;SDS011;8918;52.092;5.232;2022-12-07T09:45:32;8.40;;;2.40;;
17598;SDS011;8918;52.092;5.232;2022-12-07T09:48:02;6.23;;;2.17;;
17598;SDS011;8918;52.092;5.232;2022-12-07T09:50:28;5.93;;;2.10;;
17598;SDS011;8918;52.092;5.232;2022-12-07T09:52:58;4.37;;;1.80;;
17598;SDS011;8918;52.092;5.232;2022-12-07T09:55:40;6.93;;;2.17;;
17598;SDS011;8918;52.092;5.232;2022-12-07T09:58:11;8.40;;;2.30;;
17598;SDS011;8918;52.092;5.232;2022-12-07T10:00:46;5.37;;;1.70;;
17598;SDS011;8918;52.092;5.232;2022-12-07T10:03:12;6.77;;;1.93;;
17598;SDS011;8918;52.092;5.232;2022-12-07T10:05:39;7.27;;;1.60;;
17598;SDS011;8918;52.092;5.232;2022-12-07T10:08:12;4.33;;;1.50;;
17598;SDS011;8918;52.092;5.232;2022-12-07T10:10:38;5.53;;;1.77;;
17598;SDS011;8918;52.092;5.232;2022-12-07T10:15:53;5.03;;;1.70;;
17598;SDS011;8918;52.092;5.232;2022-12-07T10:23:38;3.40;;;1.80;;
17598;SDS011;8918;52.092;5.232;2022-12-07T10:28:53;9.10;;;4.20;;
17598;SDS011;8918;52.092;5.232;2022-12-07T10:31:21;7.30;;;3.73;;
17598;SDS011;8918;52.092;5.232;2022-12-07T10:33:49;13.50;;;5.63;;
17598;SDS011;8918;52.092;5.232;2022-12-07T10:36:16;3.97;;;1.80;;
17598;SDS011;8918;52.092;5.232;2022-12-07T10:38:48;5.50;;;1.87;;
17598;SDS011;8918;52.092;5.232;2022-12-07T10:41:16;6.90;;;1.53;;
17598;SDS011;8918;52.092;5.232;2022-12-07T10:43:48;6.60;;;3.97;;
17598;SDS011;8918;52.092;5.232;2022-12-07T10:46:28;9.57;;;4.53;;
17598;SDS011;8918;52.092;5.232;2022-12-07T10:52:17;6.77;;;3.37;;
17598;SDS011;8918;52.092;5.232;2022-12-07T10:55:15;5.73;;;2.00;;
17598;SDS011;8918;52.092;5.232;2022-12-07T10:58:16;7.83;;;3.30;;
17598;SDS011;8918;52.092;5.232;2022-12-07T11:06:15;4.70;;;1.27;;
17598;SDS011;8918;52.092;5.232;2022-12-07T11:11:47;5.10;;;2.37;;
17598;SDS011;8918;52.092;5.232;2022-12-07T11:14:27;7.20;;;2.03;;
17598;SDS011;8918;52.092;5.232;2022-12-07T11:28:40;6.43;;;1.93;;
17598;SDS011;8918;52.092;5.232;2022-12-07T11:30:42;6.37;;;1.80;;
17598;SDS011;8918;52.092;5.232;2022-12-07T11:33:21;5.53;;;2.00;;
17598;SDS011;8918;52.092;5.232;2022-12-07T11:35:57;4.50;;;1.57;;
17598;SDS011;8918;52.092;5.232;2022-12-07T11:38:45;6.90;;;2.30;;
17598;SDS011;8918;52.092;5.232;2022-12-07T11:41:19;6.80;;;1.87;;
17598;SDS011;8918;52.092;5.232;2022-12-07T11:43:59;5.23;;;1.67;;
17598;SDS011;8918;52.092;5.232;2022-12-07T11:46:35;3.53;;;1.83;;
17598;SDS011;8918;52.092;5.232;2022-12-07T11:49:25;9.60;;;3.97;;
17598;SDS011;8918;52.092;5.232;2022-12-07T11:52:09;7.93;;;2.87;;
17598;SDS011;8918;52.092;5.232;2022-12-07T11:54:45;7.70;;;1.83;;
17598;SDS011;8918;52.092;5.232;2022-12-07T11:57:17;4.03;;;1.70;;
17598;SDS011;8918;52.092;5.232;2022-12-07T11:59:53;13.83;;;5.87;;
17598;SDS011;8918;52.092;5.232;2022-12-07T12:02:32;12.07;;;3.87;;
17598;SDS011;8918;52.092;5.232;2022-12-07T12:05:21;9.30;;;3.63;;
17598;SDS011;8918;52.092;5.232;2022-12-07T12:08:00;15.93;;;7.57;;
17598;SDS011;8918;52.092;5.232;2022-12-07T12:10:54;9.37;;;6.37;;
17598;SDS011;8918;52.092;5.232;2022-12-07T12:16:56;19.20;;;9.60;;
17598;SDS011;8918;52.092;5.232;2022-12-07T12:19:30;9.43;;;4.47;;
17598;SDS011;8918;52.092;5.232;2022-12-07T12:22:12;8.13;;;3.10;;
17598;SDS011;8918;52.092;5.232;2022-12-07T12:24:42;10.77;;;5.00;;
17598;SDS011;8918;52.092;5.232;2022-12-07T12:27:32;11.00;;;4.17;;
17598;SDS011;8918;52.092;5.232;2022-12-07T12:29:59;15.37;;;7.27;;
17598;SDS011;8918;52.092;5.232;2022-12-07T12:32:36;7.57;;;2.00;;
17598;SDS011;8918;52.092;5.232;2022-12-07T12:37:57;13.80;;;6.00;;
17598;SDS011;8918;52.092;5.232;2022-12-07T12:40:46;5.83;;;2.40;;
17598;SDS011;8918;52.092;5.232;2022-12-07T12:48:54;9.83;;;5.27;;
17598;SDS011;8918;52.092;5.232;2022-12-07T12:51:39;7.20;;;2.70;;
17598;SDS011;8918;52.092;5.232;2022-12-07T13:04:55;6.80;;;2.67;;
17598;SDS011;8918;52.092;5.232;2022-12-07T13:12:59;6.33;;;2.63;;
17598;SDS011;8918;52.092;5.232;2022-12-07T13:15:43;8.37;;;4.63;;
17598;SDS011;8918;52.092;5.232;2022-12-07T13:34:39;7.20;;;2.73;;
17598;SDS011;8918;52.092;5.232;2022-12-07T13:37:10;12.10;;;2.67;;
17598;SDS011;8918;52.092;5.232;2022-12-07T13:39:56;6.87;;;2.77;;
17598;SDS011;8918;52.092;5.232;2022-12-07T13:42:27;10.83;;;4.43;;
17598;SDS011;8918;52.092;5.232;2022-12-07T13:44:59;12.47;;;5.53;;
17598;SDS011;8918;52.092;5.232;2022-12-07T13:48:00;11.07;;;4.10;;
17598;SDS011;8918;52.092;5.232;2022-12-07T13:50:31;7.43;;;2.50;;
17598;SDS011;8918;52.092;5.232;2022-12-07T13:52:58;3.10;;;1.70;;
17598;SDS011;8918;52.092;5.232;2022-12-07T13:55:25;7.47;;;2.50;;
17598;SDS011;8918;52.092;5.232;2022-12-07T13:57:52;8.27;;;2.77;;
17598;SDS011;8918;52.092;5.232;2022-12-07T14:00:19;6.13;;;2.17;;
17598;SDS011;8918;52.092;5.232;2022-12-07T14:02:57;5.40;;;2.00;;
17598;SDS011;8918;52.092;5.232;2022-12-07T14:05:29;5.13;;;1.50;;
17598;SDS011;8918;52.092;5.232;2022-12-07T14:08:02;3.97;;;1.53;;
17598;SDS011;8918;52.092;5.232;2022-12-07T14:10:34;5.70;;;2.13;;
17598;SDS011;8918;52.092;5.232;2022-12-07T14:13:33;5.87;;;3.10;;
17598;SDS011;8918;52.092;5.232;2022-12-07T14:16:03;3.67;;;1.70;;
17598;SDS011;8918;52.092;5.232;2022-12-07T14:18:41;4.17;;;1.33;;
17598;SDS011;8918;52.092;5.232;2022-12-07T14:23:37;3.80;;;1.33;;
17598;SDS011;8918;52.092;5.232;2022-12-07T14:26:05;5.47;;;3.50;;
17598;SDS011;8918;52.092;5.232;2022-12-07T14:28:40;5.83;;;1.50;;
17598;SDS011;8918;52.092;5.232;2022-12-07T14:31:17;6.53;;;3.53;;
17598;SDS011;8918;52.092;5.232;2022-12-07T14:33:46;4.20;;;2.30;;
17598;SDS011;8918;52.092;5.232;2022-12-07T14:36:12;2.57;;;1.63;;
17598;SDS011;8918;52.092;5.232;2022-12-07T14:38:38;7.60;;;2.67;;
17598;SDS011;8918;52.092;5.232;2022-12-07T14:41:05;7.60;;;3.27;;
17598;SDS011;8918;52.092;5.232;2022-12-07T14:43:56;3.93;;;1.90;;
17598;SDS011;8918;52.092;5.232;2022-12-07T14:46:21;4.03;;;2.40;;
17598;SDS011;8918;52.092;5.232;2022-12-07T14:48:47;4.07;;;1.30;;
17598;SDS011;8918;52.092;5.232;2022-12-07T14:51:13;3.30;;;2.00;;
17598;SDS011;8918;52.092;5.232;2022-12-07T14:53:48;4.57;;;1.63;;
17598;SDS011;8918;52.092;5.232;2022-12-07T14:56:16;2.90;;;1.63;;
17598;SDS011;8918;52.092;5.232;2022-12-07T14:58:42;8.07;;;2.60;;
17598;SDS011;8918;52.092;5.232;2022-12-07T15:01:08;5.70;;;1.50;;
17598;SDS011;8918;52.092;5.232;2022-12-07T15:03:33;3.77;;;1.43;;
17598;SDS011;8918;52.092;5.232;2022-12-07T15:06:00;5.23;;;1.50;;
17598;SDS011;8918;52.092;5.232;2022-12-07T15:08:26;6.60;;;3.43;;
17598;SDS011;8918;52.092;5.232;2022-12-07T15:10:51;3.93;;;1.80;;
17598;SDS011;8918;52.092;5.232;2022-12-07T15:13:17;7.57;;;2.30;;
17598;SDS011;8918;52.092;5.232;2022-12-07T15:16:02;3.17;;;1.87;;
17598;SDS011;8918;52.092;5.232;2022-12-07T15:18:28;6.40;;;2.03;;
17598;SDS011;8918;52.092;5.232;2022-12-07T15:20:53;3.43;;;1.30;;
17598;SDS011;8918;52.092;5.232;2022-12-07T15:23:19;5.00;;;1.53;;
17598;SDS011;8918;52.092;5.232;2022-12-07T15:25:46;2.83;;;1.27;;
17598;SDS011;8918;52.092;5.232;2022-12-07T15:28:13;1.93;;;1.20;;
17598;SDS011;8918;52.092;5.232;2022-12-07T15:30:39;3.53;;;1.60;;
17598;SDS011;8918;52.092;5.232;2022-12-07T15:33:08;3.27;;;1.63;;
17598;SDS011;8918;52.092;5.232;2022-12-07T15:35:38;3.23;;;1.30;;
17598;SDS011;8918;52.092;5.232;2022-12-07T15:38:06;4.20;;;1.60;;
17598;SDS011;8918;52.092;5.232;2022-12-07T15:40:31;6.97;;;1.83;;
17598;SDS011;8918;52.092;5.232;2022-12-07T15:42:57;2.47;;;1.30;;
17598;SDS011;8918;52.092;5.232;2022-12-07T15:45:23;2.80;;;1.70;;
17598;SDS011;8918;52.092;5.232;2022-12-07T15:47:49;6.37;;;1.70;;
17598;SDS011;8918;52.092;5.232;2022-12-07T15:50:15;2.80;;;1.20;;
17598;SDS011;8918;52.092;5.232;2022-12-07T15:52:41;4.93;;;1.37;;
17598;SDS011;8918;52.092;5.232;2022-12-07T15:55:08;2.43;;;1.20;;
17598;SDS011;8918;52.092;5.232;2022-12-07T15:57:35;4.47;;;1.60;;
17598;SDS011;8918;52.092;5.232;2022-12-07T16:00:02;4.77;;;1.57;;
17598;SDS011;8918;52.092;5.232;2022-12-07T16:02:29;2.57;;;1.30;;
17598;SDS011;8918;52.092;5.232;2022-12-07T16:04:55;8.10;;;4.60;;
17598;SDS011;8918;52.092;5.232;2022-12-07T16:07:20;5.13;;;2.00;;
17598;SDS011;8918;52.092;5.232;2022-12-07T16:09:46;4.80;;;2.27;;
17598;SDS011;8918;52.092;5.232;2022-12-07T16:12:12;4.27;;;1.80;;
17598;SDS011;8918;52.092;5.232;2022-12-07T16:14:39;6.47;;;2.10;;
17598;SDS011;8918;52.092;5.232;2022-12-07T16:17:05;5.03;;;2.10;;
17598;SDS011;8918;52.092;5.232;2022-12-07T16:19:31;5.03;;;3.00;;
17598;SDS011;8918;52.092;5.232;2022-12-07T16:21:57;5.67;;;2.20;;
17598;SDS011;8918;52.092;5.232;2022-12-07T16:24:24;4.00;;;2.60;;
17598;SDS011;8918;52.092;5.232;2022-12-07T16:26:50;4.13;;;1.97;;
17598;SDS011;8918;52.092;5.232;2022-12-07T16:29:15;4.77;;;2.60;;
17598;SDS011;8918;52.092;5.232;2022-12-07T16:31:41;5.40;;;2.57;;
17598;SDS011;8918;52.092;5.232;2022-12-07T16:34:08;7.03;;;2.80;;
17598;SDS011;8918;52.092;5.232;2022-12-07T16:36:34;5.47;;;3.60;;
17598;SDS011;8918;52.092;5.232;2022-12-07T16:39:00;3.37;;;2.00;;
17598;SDS011;8918;52.092;5.232;2022-12-07T16:41:26;4.13;;;2.80;;
17598;SDS011;8918;52.092;5.232;2022-12-07T16:43:51;6.17;;;3.30;;
17598;SDS011;8918;52.092;5.232;2022-12-07T16:46:17;4.43;;;2.40;;
17598;SDS011;8918;52.092;5.232;2022-12-07T16:48:43;6.67;;;2.90;;
17598;SDS011;8918;52.092;5.232;2022-12-07T16:51:10;6.20;;;3.00;;
17598;SDS011;8918;52.092;5.232;2022-12-07T16:53:38;4.33;;;2.40;;
17598;SDS011;8918;52.092;5.232;2022-12-07T16:56:12;4.63;;;2.50;;
17598;SDS011;8918;52.092;5.232;2022-12-07T16:58:40;6.13;;;3.13;;
17598;SDS011;8918;52.092;5.232;2022-12-07T17:01:12;6.67;;;2.23;;
17598;SDS011;8918;52.092;5.232;2022-12-07T17:03:40;5.03;;;3.53;;